| time (UTC) | temp C | wind direction | speed KPH | gust KPH | rain 1hr cm | rain 24hr cm | rain mn cm | humidity % | barometer mb |
| 20260507183456 | 10 | 312 | 1.6 | 1.6 | 0.18 | 3.38 | 3.38 | 99 | 1012.8 |
| 20260507182954 | 10 | 16 | 4.8 | 4.8 | 0.13 | 3.35 | 3.35 | 99 | 1012.6 |
| 20260507182449 | 10 | 302 | 3.2 | 4.8 | 0.13 | 3.35 | 3.35 | 99 | 1012.1 |
| 20260507181945 | 10 | 358 | 0.0 | 1.6 | 0.18 | 3.33 | 3.33 | 99 | 1011.9 |
| 20260507181442 | 10 | 22 | 1.6 | 3.2 | 0.18 | 3.33 | 3.33 | 99 | 1012.3 |
| 20260507180939 | 10 | 6 | 1.6 | 3.2 | 0.00 | 3.30 | 3.30 | 99 | 1012.3 |
| 20260507180436 | 10 | 11 | 0.0 | 1.6 | 0.13 | 3.30 | 3.30 | 99 | 1012.1 |
| 20260507175932 | 10 | 354 | 1.6 | 3.2 | 0.18 | 3.28 | 3.28 | 99 | 1012.3 |
| 20260507175428 | 10 | 321 | 0.0 | 0.0 | 0.30 | 3.28 | 3.28 | 99 | 1012.8 |
| 20260507174926 | 10 | 342 | 0.0 | 0.0 | 0.30 | 3.25 | 3.25 | 99 | 1012.8 |
| 20260507174423 | 10 | 27 | 3.2 | 3.2 | 0.48 | 3.23 | 3.23 | 99 | 1012.8 |
| 20260507173921 | 10 | 207 | 3.2 | 3.2 | 0.43 | 3.20 | 3.20 | 99 | 1013.2 |
| 20260507173417 | 10 | 329 | 0.0 | 0.0 | 0.13 | 3.15 | 3.15 | 99 | 1013.4 |
| 20260507172914 | 10 | 358 | 1.6 | 1.6 | 0.18 | 3.12 | 3.12 | 99 | 1013.6 |
| 20260507172411 | 10 | 351 | 1.6 | 3.2 | 0.48 | 3.12 | 3.12 | 99 | 1013.8 |
| 20260507171907 | 10 | 25 | 8.0 | 12.9 | 0.18 | 3.07 | 3.07 | 99 | 1013.3 |
| 20260507171403 | 11 | 23 | 8.0 | 14.5 | 0.18 | 3.05 | 3.05 | 99 | 1013.8 |
| 20260507170900 | 11 | 337 | 0.0 | 1.6 | 0.30 | 3.05 | 3.05 | 99 | 1013.7 |
| 20260507170357 | 11 | 317 | 0.0 | 1.6 | 0.13 | 3.02 | 3.02 | 99 | 1013.2 |
| 20260507165853 | 11 | 356 | 1.6 | 1.6 | 0.00 | 3.00 | 3.00 | 99 | 1013.5 |
| 20260507165349 | 11 | 25 | 1.6 | 3.2 | 0.18 | 3.00 | 3.00 | 99 | 1013.2 |
| 20260507164845 | 11 | 342 | 1.6 | 1.6 | 0.18 | 3.00 | 3.00 | 99 | 1013.5 |
| 20260507164342 | 11 | 6 | 3.2 | 3.2 | 0.13 | 2.97 | 2.97 | 99 | 1013.3 |
| 20260507163840 | 11 | 350 | 1.6 | 1.6 | 0.43 | 2.97 | 2.97 | 99 | 1013.3 |
| 20260507163337 | 10 | 313 | 0.0 | 0.0 | 0.48 | 2.95 | 2.95 | 99 | 1013.3 |
| 20260507162834 | 10 | 9 | 4.8 | 8.0 | 0.48 | 2.90 | 2.90 | 99 | 1013.3 |
| 20260507162329 | 11 | 20 | 4.8 | 8.0 | 0.61 | 2.84 | 2.84 | 99 | 1013.0 |
| 20260507161826 | 11 | 90 | 1.6 | 4.8 | 0.79 | 2.79 | 2.79 | 99 | 1013.0 |
| 20260507161323 | 11 | 7 | 3.2 | 3.2 | 0.79 | 2.72 | 2.72 | 99 | 1013.4 |
| 20260507160820 | 11 | 338 | 1.6 | 1.6 | 0.79 | 2.67 | 2.67 | 99 | 1013.6 |
| 20260507160315 | 11 | 1 | 1.6 | 3.2 | 0.71 | 2.59 | 2.59 | 99 | 1013.7 |
| 20260507155811 | 11 | 347 | 8.0 | 9.7 | 1.07 | 2.51 | 2.51 | 99 | 1013.3 |
| 20260507155308 | 11 | 47 | 0.0 | 1.6 | 1.19 | 2.44 | 2.44 | 99 | 1012.4 |
| 20260507154804 | 11 | 11 | 1.6 | 3.2 | 1.02 | 2.31 | 2.31 | 99 | 1012.8 |
| 20260507154302 | 11 | 328 | 1.6 | 3.2 | 0.89 | 2.21 | 2.21 | 99 | 1013.2 |
| 20260507153758 | 11 | 1 | 3.2 | 3.2 | 1.07 | 2.13 | 2.13 | 99 | 1013.4 |
| 20260507153254 | 11 | 291 | 1.6 | 3.2 | 0.89 | 2.03 | 2.03 | 99 | 1013.8 |
| 20260507152751 | 11 | 6 | 1.6 | 1.6 | 0.89 | 1.96 | 1.96 | 99 | 1013.7 |
| 20260507152248 | 11 | 11 | 4.8 | 4.8 | 1.07 | 1.88 | 1.88 | 99 | 1013.6 |
| 20260507151743 | 11 | 15 | 0.0 | 1.6 | 1.37 | 1.78 | 1.78 | 99 | 1013.6 |
| 20260507151240 | 12 | 7 | 3.2 | 4.8 | 1.68 | 1.65 | 1.65 | 99 | 1013.9 |
| 20260507150737 | 12 | 322 | 3.2 | 4.8 | 1.37 | 1.50 | 1.50 | 99 | 1013.9 |
| 20260507150234 | 12 | 4 | 3.2 | 4.8 | 0.61 | 1.35 | 1.35 | 99 | 1013.7 |
| 20260507145730 | 12 | 335 | 0.0 | 0.0 | 0.30 | 1.27 | 1.27 | 99 | 1013.8 |
| 20260507145226 | 12 | 352 | 4.8 | 4.8 | 0.18 | 1.24 | 1.24 | 99 | 1013.5 |
| 20260507144724 | 12 | 7 | 4.8 | 8.0 | 0.00 | 1.22 | 1.22 | 99 | 1013.7 |
| 20260507144221 | 12 | 27 | 8.0 | 11.3 | 0.13 | 1.22 | 1.22 | 99 | 1013.7 |
| 20260507143718 | 12 | 21 | 3.2 | 4.8 | 0.30 | 1.22 | 1.22 | 99 | 1013.8 |
| 20260507143215 | 12 | 19 | 3.2 | 4.8 | 0.18 | 1.19 | 1.19 | 99 | 1013.4 |
| 20260507142711 | 13 | 347 | 1.6 | 3.2 | 0.13 | 1.17 | 1.17 | 99 | 1013.4 |
| 20260507142208 | 12 | 88 | 1.6 | 3.2 | 0.30 | 1.17 | 1.17 | 99 | 1013.3 |
| 20260507141703 | 13 | 24 | 1.6 | 3.2 | 0.00 | 1.12 | 1.12 | 99 | 1013.5 |
| 20260507141201 | 13 | 298 | 1.6 | 1.6 | 0.18 | 1.12 | 1.12 | 99 | 1013.2 |
| 20260507140657 | 13 | 0 | 4.8 | 8.0 | 0.18 | 1.12 | 1.12 | 99 | 1013.0 |
| 20260507140155 | 13 | 21 | 9.7 | 16.1 | 0.00 | 1.09 | 1.09 | 99 | 1013.0 |
| 20260507135651 | 13 | 337 | 1.6 | 3.2 | 0.00 | 1.09 | 1.09 | 99 | 1013.0 |
| 20260507135149 | 13 | 269 | 3.2 | 4.8 | 0.00 | 1.09 | 1.09 | 99 | 1013.1 |
| 20260507134645 | 13 | 29 | 4.8 | 8.0 | 0.13 | 1.09 | 1.09 | 99 | 1013.1 |
| 20260507134141 | 13 | 340 | 3.2 | 4.8 | 0.00 | 1.07 | 1.07 | 99 | 1013.2 |
| 20260507133637 | 14 | 326 | 0.0 | 1.6 | 0.18 | 1.07 | 1.07 | 99 | 1013.1 |
| 20260507133135 | 14 | 24 | 4.8 | 8.0 | 0.18 | 1.07 | 1.07 | 99 | 1013.0 |
| 20260507132632 | 14 | 18 | 1.6 | 3.2 | 0.13 | 1.04 | 1.04 | 99 | 1012.8 |
| 20260507132128 | 14 | 20 | 8.0 | 9.7 | 0.43 | 1.04 | 1.04 | 99 | 1012.9 |
| 20260507131625 | 15 | 347 | 3.2 | 3.2 | 0.71 | 0.99 | 0.99 | 99 | 1012.8 |
| 20260507131123 | 15 | 341 | 1.6 | 1.6 | 0.61 | 0.94 | 0.94 | 99 | 1013.3 |
| 20260507130619 | 15 | 346 | 0.0 | 0.0 | 0.18 | 0.86 | 0.86 | 99 | 1013.2 |
| 20260507130117 | 15 | 324 | 0.0 | 0.0 | 0.00 | 0.84 | 0.84 | 99 | 1013.1 |
| 20260507125615 | 15 | 331 | 0.0 | 1.6 | 0.00 | 0.84 | 0.84 | 99 | 1013.0 |
| 20260507125112 | 15 | 321 | 0.0 | 0.0 | 0.00 | 0.84 | 0.84 | 99 | 1012.9 |
| 20260507124609 | 15 | 335 | 1.6 | 1.6 | 0.00 | 0.84 | 0.84 | 99 | 1013.1 |
| 20260507124107 | 15 | 58 | 0.0 | 0.0 | 0.00 | 0.84 | 0.84 | 99 | 1013.0 |
| 20260507123605 | 15 | 305 | 0.0 | 0.0 | 0.00 | 0.84 | 0.84 | 99 | 1012.9 |
| 20260507123101 | 15 | 282 | 1.6 | 3.2 | 0.18 | 0.84 | 0.84 | 99 | 1013.2 |
| 20260507122556 | 15 | 300 | 0.0 | 1.6 | 0.18 | 0.84 | 0.84 | 99 | 1013.1 |
| 20260507122052 | 15 | 53 | 1.6 | 3.2 | 0.13 | 0.81 | 0.81 | 99 | 1013.1 |
| 20260507121548 | 15 | 318 | 0.0 | 0.0 | 0.30 | 0.81 | 0.81 | 99 | 1012.9 |
| 20260507121045 | 15 | 311 | 0.0 | 0.0 | 0.18 | 0.79 | 0.79 | 99 | 1012.9 |
| 20260507120540 | 15 | 350 | 0.0 | 1.6 | 0.00 | 0.76 | 0.76 | 99 | 1013.0 |
| 20260507120038 | 15 | 341 | 1.6 | 1.6 | 0.00 | 0.76 | 0.76 | 99 | 1013.2 |
| 20260507115534 | 15 | 310 | 0.0 | 0.0 | 0.00 | 0.76 | 0.76 | 99 | 1012.9 |
| 20260507115030 | 15 | 27 | 1.6 | 3.2 | 0.00 | 0.76 | 0.76 | 99 | 1012.9 |
| 20260507114526 | 15 | 292 | 0.0 | 0.0 | 0.00 | 0.76 | 0.76 | 99 | 1012.5 |
| 20260507114023 | 16 | 303 | 0.0 | 0.0 | 0.30 | 0.76 | 0.76 | 99 | 1012.6 |
| 20260507113521 | 16 | 317 | 0.0 | 0.0 | 0.89 | 0.76 | 0.76 | 99 | 1012.4 |
| 20260507113018 | 16 | 314 | 1.6 | 1.6 | 0.89 | 0.71 | 0.71 | 99 | 1012.3 |
| 20260507112515 | 18 | 2 | 1.6 | 1.6 | 0.43 | 0.61 | 0.61 | 99 | 1012.6 |
| 20260507112012 | 18 | 264 | 3.2 | 3.2 | 0.13 | 0.56 | 0.56 | 99 | 1012.3 |
| 20260507111510 | 18 | 265 | 1.6 | 1.6 | 0.18 | 0.53 | 0.53 | 99 | 1012.0 |
| 20260507111005 | 18 | 248 | 1.6 | 3.2 | 0.48 | 0.53 | 0.53 | 99 | 1012.2 |
| 20260507110502 | 18 | 251 | 4.8 | 8.0 | 0.61 | 0.51 | 0.51 | 99 | 1012.1 |
| 20260507105958 | 18 | 268 | 3.2 | 3.2 | 0.48 | 0.46 | 0.46 | 99 | 1012.5 |
| 20260507105455 | 18 | 275 | 0.0 | 0.0 | 0.48 | 0.41 | 0.41 | 98 | 1012.3 |
| 20260507104951 | 18 | 282 | 0.0 | 0.0 | 0.43 | 0.38 | 0.38 | 98 | 1012.0 |
| 20260507104449 | 18 | 280 | 0.0 | 0.0 | 0.61 | 0.33 | 0.33 | 98 | 1012.2 |
| 20260507103944 | 18 | 274 | 1.6 | 3.2 | 0.79 | 0.28 | 0.28 | 98 | 1012.0 |
| 20260507103441 | 18 | 266 | 0.0 | 1.6 | 0.89 | 0.23 | 0.23 | 97 | 1012.4 |
| 20260507102937 | 18 | 278 | 0.0 | 0.0 | 0.71 | 0.15 | 0.15 | 97 | 1012.3 |
| 20260507102435 | 19 | 284 | 0.0 | 0.0 | 0.48 | 0.08 | 0.08 | 96 | 1012.0 |
| 20260507101931 | 19 | 310 | 0.0 | 0.0 | 0.18 | 0.03 | 0.03 | 96 | 1012.1 |
| 20260507101426 | 19 | 286 | 0.0 | 0.0 | 0.00 | 0.00 | 0.00 | 96 | 1011.7 |
| 20260507100923 | 19 | 283 | 0.0 | 0.0 | 0.00 | 0.00 | 0.00 | 96 | 1011.7 |
| 20260507100420 | 19 | 260 | 0.0 | 0.0 | 0.00 | 0.00 | 0.00 | 96 | 1011.4 |
| 20260507095919 | 19 | 266 | 0.0 | 0.0 | 0.00 | 0.00 | 0.00 | 95 | 1011.5 |
| 20260507095415 | 19 | 272 | 0.0 | 0.0 | 0.00 | 0.00 | 0.00 | 95 | 1011.0 |
| 20260507094913 | 19 | 279 | 0.0 | 0.0 | 0.00 | 0.00 | 0.00 | 94 | 1011.1 |
| 20260507094408 | 19 | 278 | 0.0 | 0.0 | 0.00 | 0.00 | 0.00 | 94 | 1010.9 |
| 20260507093905 | 19 | 279 | 0.0 | 0.0 | 0.00 | 0.00 | 0.00 | 93 | 1010.9 |
| 20260507093404 | 20 | 259 | 0.0 | 0.0 | 0.00 | 0.00 | 0.00 | 93 | 1010.9 |
| 20260507092902 | 20 | 242 | 1.6 | 3.2 | 0.00 | 0.00 | 0.00 | 92 | 1011.2 |
| 20260507092357 | 20 | 244 | 3.2 | 3.2 | 0.00 | 0.00 | 0.00 | 91 | 1011.3 |
| 20260507091854 | 20 | 283 | 1.6 | 3.2 | 0.00 | 0.00 | 0.00 | 89 | 1011.4 |
| 20260507091351 | 20 | 245 | 3.2 | 3.2 | 0.00 | 0.00 | 0.00 | 87 | 1011.5 |
| 20260507090846 | 20 | 193 | 3.2 | 4.8 | 0.00 | 0.00 | 0.00 | 86 | 1011.2 |
| 20260507090343 | 20 | 233 | 4.8 | 8.0 | 0.00 | 0.00 | 0.00 | 86 | 1011.3 |
| 20260507085840 | 20 | 229 | 3.2 | 3.2 | 0.00 | 0.00 | 0.00 | 86 | 1011.6 |
| 20260507085337 | 20 | 293 | 1.6 | 3.2 | 0.00 | 0.00 | 0.00 | 86 | 1011.5 |
| 20260507084834 | 20 | 267 | 3.2 | 3.2 | 0.00 | 0.00 | 0.00 | 86 | 1011.4 |
| 20260507084330 | 20 | 186 | 3.2 | 3.2 | 0.00 | 0.00 | 0.00 | 85 | 1011.6 |
| 20260507083828 | 21 | 235 | 4.8 | 4.8 | 0.00 | 0.00 | 0.00 | 85 | 1012.0 |
| 20260507083324 | 21 | 249 | 6.4 | 8.0 | 0.00 | 0.00 | 0.00 | 85 | 1011.4 |
| 20260507082820 | 21 | 252 | 4.8 | 8.0 | 0.00 | 0.00 | 0.00 | 85 | 1011.8 |
| 20260507082316 | 20 | 290 | 3.2 | 3.2 | 0.00 | 0.00 | 0.00 | 85 | 1011.5 |
| 20260507081814 | 20 | 246 | 0.0 | 1.6 | 0.00 | 0.00 | 0.00 | 85 | 1011.8 |
| 20260507081309 | 20 | 259 | 0.0 | 0.0 | 0.00 | 0.00 | 0.00 | 85 | 1012.0 |
| 20260507080806 | 20 | 233 | 1.6 | 3.2 | 0.00 | 0.00 | 0.00 | 85 | 1011.9 |
| 20260507080303 | 20 | 249 | 3.2 | 4.8 | 0.00 | 0.00 | 0.00 | 86 | 1012.2 |
| 20260507075758 | 20 | 288 | 1.6 | 3.2 | 0.00 | 0.00 | 0.00 | 86 | 1012.1 |
| 20260507075254 | 20 | 255 | 3.2 | 4.8 | 0.00 | 0.00 | 0.00 | 86 | 1012.4 |
| 20260507074750 | 20 | 236 | 1.6 | 3.2 | 0.00 | 0.00 | 0.00 | 86 | 1012.2 |
| 20260507074249 | 20 | 248 | 4.8 | 4.8 | 0.00 | 0.00 | 0.00 | 87 | 1012.2 |
| 20260507073745 | 20 | 245 | 4.8 | 8.0 | 0.00 | 0.00 | 0.00 | 87 | 1012.2 |
| 20260507073241 | 20 | 271 | 1.6 | 1.6 | 0.00 | 0.00 | 0.00 | 87 | 1012.2 |
| 20260507072740 | 20 | 232 | 1.6 | 3.2 | 0.00 | 0.00 | 0.00 | 87 | 1012.2 |
| 20260507072237 | 20 | 285 | 0.0 | 0.0 | 0.00 | 0.00 | 0.00 | 87 | 1011.9 |
| 20260507071734 | 20 | 273 | 3.2 | 3.2 | 0.00 | 0.00 | 0.00 | 87 | 1012.0 |
| 20260507071230 | 20 | 236 | 3.2 | 3.2 | 0.00 | 0.00 | 0.00 | 87 | 1011.7 |
| 20260507070727 | 20 | 260 | 1.6 | 3.2 | 0.00 | 0.00 | 0.00 | 87 | 1011.7 |
| 20260507070224 | 20 | 254 | 4.8 | 4.8 | 0.00 | 0.00 | 0.00 | 87 | 1011.9 |
| 20260507065721 | 20 | 286 | 1.6 | 3.2 | 0.00 | 0.00 | 0.00 | 87 | 1011.7 |
| 20260507065218 | 20 | 280 | 1.6 | 3.2 | 0.00 | 0.00 | 0.00 | 87 | 1011.4 |
| 20260507064715 | 20 | 248 | 3.2 | 4.8 | 0.00 | 0.00 | 0.00 | 87 | 1011.6 |
| 20260507064214 | 20 | 260 | 1.6 | 1.6 | 0.00 | 0.00 | 0.00 | 86 | 1011.5 |
| 20260507063711 | 20 | 266 | 0.0 | 1.6 | 0.00 | 0.00 | 0.00 | 84 | 1011.1 |
| 20260507063208 | 21 | 203 | 1.6 | 1.6 | 0.00 | 0.00 | 0.00 | 84 | 1011.6 |
| 20260507062705 | 21 | 252 | 1.6 | 1.6 | 0.00 | 0.00 | 0.00 | 83 | 1011.8 |
| 20260507062202 | 21 | 213 | 3.2 | 4.8 | 0.00 | 0.00 | 0.00 | 83 | 1012.4 |
| 20260507061700 | 20 | 192 | 4.8 | 4.8 | 0.00 | 0.00 | 0.00 | 83 | 1012.5 |
| 20260507061158 | 20 | 228 | 1.6 | 1.6 | 0.00 | 0.00 | 0.00 | 83 | 1012.6 |
| 20260507060655 | 21 | 250 | 3.2 | 3.2 | 0.00 | 0.00 | 0.00 | 83 | 1012.8 |
| 20260507060152 | 21 | 218 | 4.8 | 4.8 | 0.00 | 0.00 | 0.00 | 83 | 1012.7 |
| 20260507055647 | 21 | 209 | 1.6 | 1.6 | 0.00 | 0.00 | 0.00 | 82 | 1012.8 |
| 20260507055144 | 21 | 266 | 6.4 | 8.0 | 0.00 | 0.00 | 0.00 | 80 | 1012.7 |
| 20260507054640 | 21 | 225 | 4.8 | 4.8 | 0.00 | 0.00 | 0.00 | 79 | 1013.0 |
| 20260507054137 | 21 | 261 | 1.6 | 3.2 | 0.00 | 0.00 | 0.00 | 78 | 1012.7 |
| 20260507053635 | 21 | 266 | 4.8 | 4.8 | 0.00 | 0.00 | 0.00 | 77 | 1013.1 |
| 20260507053132 | 21 | 200 | 4.8 | 4.8 | 0.00 | 0.00 | 0.00 | 77 | 1013.1 |
| 20260507052631 | 21 | 245 | 1.6 | 1.6 | 0.00 | 0.00 | 0.00 | 76 | 1013.0 |
| 20260507052126 | 21 | 213 | 1.6 | 3.2 | 0.00 | 0.00 | 0.00 | 75 | 1012.9 |
| 20260507051624 | 21 | 281 | 1.6 | 3.2 | 0.00 | 0.00 | 0.00 | 75 | 1012.9 |
| 20260507051120 | 21 | 251 | 0.0 | 1.6 | 0.00 | 0.00 | 0.00 | 74 | 1013.0 |
| 20260507050617 | 22 | 255 | 1.6 | 3.2 | 0.00 | 0.00 | 0.00 | 73 | 1012.8 |
| 20260507050109 | 22 | 240 | 1.6 | 3.2 | 0.00 | 0.00 | 0.00 | 72 | 1012.6 |
| 20260507045605 | 22 | 233 | 0.0 | 0.0 | 0.00 | 0.00 | 0.00 | 72 | 1012.4 |
| 20260507045102 | 22 | 223 | 3.2 | 3.2 | 0.00 | 0.00 | 0.00 | 72 | 1012.7 |
| 20260507044559 | 22 | 277 | 1.6 | 3.2 | 0.00 | 0.00 | 0.00 | 71 | 1012.8 |
| 20260507044056 | 22 | 197 | 4.8 | 4.8 | 0.00 | 0.00 | 0.00 | 71 | 1013.0 |
| 20260507043552 | 22 | 236 | 6.4 | 9.7 | 0.00 | 0.00 | 0.00 | 71 | 1013.1 |
| 20260507043049 | 22 | 238 | 0.0 | 0.0 | 0.00 | 0.00 | 0.00 | 71 | 1013.1 |
| 20260507042545 | 22 | 218 | 3.2 | 4.8 | 0.00 | 0.00 | 0.00 | 71 | 1012.9 |
| 20260507042041 | 22 | 250 | 4.8 | 8.0 | 0.00 | 0.00 | 0.00 | 71 | 1013.0 |
| 20260507041538 | 22 | 194 | 4.8 | 4.8 | 0.00 | 0.00 | 0.00 | 71 | 1012.8 |
| 20260507041035 | 22 | 231 | 4.8 | 4.8 | 0.00 | 0.00 | 0.00 | 71 | 1012.8 |
| 20260507040531 | 22 | 243 | 3.2 | 3.2 | 0.00 | 0.00 | 0.00 | 72 | 1012.6 |
| 20260507040027 | 22 | 213 | 6.4 | 8.0 | 0.00 | 0.00 | 0.00 | 72 | 1012.6 |
| 20260507035523 | 22 | 233 | 3.2 | 3.2 | 0.00 | 0.00 | 0.00 | 73 | 1012.5 |
| 20260507035020 | 22 | 212 | 4.8 | 8.0 | 0.00 | 0.00 | 0.00 | 73 | 1012.3 |
| 20260507034517 | 22 | 251 | 1.6 | 3.2 | 0.00 | 0.00 | 0.00 | 73 | 1012.4 |
| 20260507034015 | 22 | 188 | 6.4 | 8.0 | 0.00 | 0.00 | 0.00 | 73 | 1012.3 |
| 20260507033513 | 22 | 203 | 4.8 | 4.8 | 0.00 | 0.00 | 0.00 | 73 | 1012.4 |
| 20260507033010 | 23 | 229 | 4.8 | 8.0 | 0.00 | 0.00 | 0.00 | 73 | 1012.2 |
| 20260507032506 | 23 | 238 | 0.0 | 1.6 | 0.00 | 0.00 | 0.00 | 72 | 1012.1 |
| 20260507032003 | 23 | 207 | 3.2 | 3.2 | 0.00 | 0.00 | 0.00 | 72 | 1012.4 |
| 20260507031459 | 23 | 227 | 4.8 | 4.8 | 0.00 | 0.00 | 0.00 | 71 | 1012.5 |
| 20260507030956 | 23 | 196 | 4.8 | 8.0 | 0.00 | 0.00 | 0.00 | 72 | 1012.6 |
| 20260507030453 | 23 | 206 | 4.8 | 4.8 | 0.00 | 0.00 | 0.00 | 72 | 1012.3 |
| 20260507025950 | 23 | 276 | 1.6 | 1.6 | 0.00 | 0.00 | 0.00 | 73 | 1012.7 |
| 20260507025447 | 23 | 266 | 3.2 | 3.2 | 0.00 | 0.00 | 0.00 | 73 | 1012.3 |
| 20260507024945 | 23 | 261 | 1.6 | 3.2 | 0.00 | 0.00 | 0.00 | 74 | 1012.5 |
| 20260507024442 | 23 | 251 | 1.6 | 4.8 | 0.00 | 0.00 | 0.00 | 74 | 1012.8 |
| 20260507023937 | 23 | 289 | 1.6 | 1.6 | 0.00 | 0.00 | 0.00 | 74 | 1013.1 |
| 20260507023435 | 23 | 189 | 1.6 | 3.2 | 0.00 | 0.00 | 0.00 | 75 | 1013.0 |
| 20260507022932 | 23 | 219 | 1.6 | 3.2 | 0.00 | 0.00 | 0.00 | 75 | 1013.1 |
| 20260507022429 | 23 | 229 | 0.0 | 0.0 | 0.00 | 0.00 | 0.00 | 74 | 1013.0 |
| 20260507021924 | 23 | 292 | 4.8 | 4.8 | 0.00 | 0.00 | 0.00 | 74 | 1013.0 |
| 20260507021420 | 23 | 264 | 3.2 | 3.2 | 0.00 | 0.00 | 0.00 | 74 | 1012.9 |
| 20260507020918 | 23 | 293 | 3.2 | 3.2 | 0.00 | 0.00 | 0.00 | 75 | 1013.1 |
| 20260507020414 | 23 | 209 | 3.2 | 3.2 | 0.00 | 0.00 | 0.00 | 75 | 1013.3 |
| 20260507015911 | 23 | 272 | 1.6 | 1.6 | 0.00 | 0.00 | 0.00 | 75 | 1013.0 |
| 20260507015409 | 23 | 274 | 1.6 | 1.6 | 0.00 | 0.00 | 0.00 | 74 | 1013.4 |
| 20260507014906 | 23 | 231 | 0.0 | 1.6 | 0.00 | 0.00 | 0.00 | 74 | 1013.1 |
| 20260507014402 | 23 | 263 | 0.0 | 1.6 | 0.00 | 0.00 | 0.00 | 73 | 1013.3 |
| 20260507013859 | 23 | 185 | 4.8 | 4.8 | 0.00 | 0.00 | 0.00 | 73 | 1012.8 |
| 20260507013356 | 23 | 270 | 0.0 | 0.0 | 0.00 | 0.00 | 0.00 | 71 | 1013.2 |
| 20260507012854 | 23 | 282 | 1.6 | 3.2 | 0.00 | 0.00 | 0.00 | 70 | 1012.9 |
| 20260507012349 | 23 | 199 | 1.6 | 3.2 | 0.00 | 0.00 | 0.00 | 69 | 1013.0 |
| 20260507011847 | 23 | 283 | 0.0 | 1.6 | 0.00 | 0.00 | 0.00 | 67 | 1013.0 |
| 20260507011344 | 23 | 286 | 0.0 | 0.0 | 0.00 | 0.00 | 0.00 | 66 | 1013.4 |
| 20260507010843 | 24 | 273 | 0.0 | 0.0 | 0.00 | 0.00 | 0.00 | 66 | 1013.3 |
| 20260507010339 | 24 | 265 | 1.6 | 1.6 | 0.00 | 0.00 | 0.00 | 66 | 1013.2 |
| 20260507005837 | 24 | 237 | 0.0 | 0.0 | 0.00 | 0.00 | 0.00 | 65 | 1013.2 |
| 20260507005333 | 24 | 291 | 0.0 | 0.0 | 0.00 | 0.00 | 0.00 | 65 | 1013.2 |
| 20260507004830 | 24 | 261 | 1.6 | 1.6 | 0.00 | 0.00 | 0.00 | 65 | 1013.0 |
| 20260507004327 | 24 | 254 | 1.6 | 1.6 | 0.00 | 0.00 | 0.00 | 64 | 1012.9 |
| 20260507003824 | 24 | 238 | 3.2 | 4.8 | 0.00 | 0.00 | 0.00 | 64 | 1012.9 |
| 20260507003320 | 24 | 215 | 1.6 | 3.2 | 0.00 | 0.00 | 0.00 | 64 | 1012.8 |
| 20260507002815 | 24 | 273 | 0.0 | 0.0 | 0.00 | 0.00 | 0.00 | 64 | 1013.0 |
| 20260507002311 | 24 | 273 | 0.0 | 0.0 | 0.00 | 0.00 | 0.00 | 63 | 1012.7 |
| 20260507001809 | 25 | 275 | 3.2 | 4.8 | 0.00 | 0.00 | 0.00 | 63 | 1012.7 |
| 20260507001306 | 25 | 214 | 0.0 | 0.0 | 0.00 | 0.00 | 0.00 | 63 | 1012.5 |
| 20260507000802 | 25 | 264 | 0.0 | 0.0 | 0.00 | 0.00 | 0.00 | 63 | 1012.3 |
| 20260507000259 | 25 | 261 | 0.0 | 0.0 | 0.00 | 0.00 | 0.00 | 62 | 1012.6 |
| 20260506235754 | 25 | 230 | 1.6 | 3.2 | 0.00 | 0.00 | 0.00 | 62 | 1012.5 |
| 20260506235250 | 25 | 276 | 0.0 | 0.0 | 0.00 | 0.00 | 0.00 | 61 | 1012.7 |
| 20260506234748 | 25 | 259 | 3.2 | 4.8 | 0.00 | 0.00 | 0.00 | 61 | 1012.4 |
| 20260506234245 | 25 | 274 | 1.6 | 1.6 | 0.00 | 0.00 | 0.00 | 61 | 1012.2 |
| 20260506233742 | 25 | 245 | 1.6 | 3.2 | 0.00 | 0.00 | 0.00 | 61 | 1012.0 |
| 20260506233238 | 25 | 239 | 0.0 | 0.0 | 0.00 | 0.00 | 0.00 | 61 | 1012.3 |
| 20260506232735 | 25 | 253 | 6.4 | 8.0 | 0.00 | 0.00 | 0.00 | 61 | 1012.0 |
| 20260506232230 | 25 | 251 | 0.0 | 1.6 | 0.00 | 0.00 | 0.00 | 60 | 1012.3 |
| 20260506231728 | 25 | 297 | 4.8 | 4.8 | 0.00 | 0.00 | 0.00 | 60 | 1012.0 |
| 20260506231226 | 25 | 238 | 1.6 | 3.2 | 0.00 | 0.00 | 0.00 | 60 | 1011.9 |
| 20260506230722 | 25 | 244 | 6.4 | 8.0 | 0.00 | 0.00 | 0.00 | 60 | 1011.9 |
| 20260506230219 | 25 | 279 | 3.2 | 4.8 | 0.00 | 0.00 | 0.00 | 60 | 1011.9 |
| 20260506225715 | 25 | 250 | 0.0 | 1.6 | 0.00 | 0.00 | 0.00 | 61 | 1012.0 |
| 20260506225213 | 25 | 277 | 0.0 | 1.6 | 0.00 | 0.00 | 0.00 | 60 | 1012.0 |
| 20260506224709 | 26 | 205 | 1.6 | 3.2 | 0.00 | 0.00 | 0.00 | 60 | 1012.0 |
| 20260506224206 | 26 | 215 | 6.4 | 8.0 | 0.00 | 0.00 | 0.00 | 60 | 1012.0 |
| 20260506223702 | 26 | 268 | 6.4 | 9.7 | 0.00 | 0.00 | 0.00 | 60 | 1012.3 |
| 20260506223158 | 26 | 237 | 6.4 | 9.7 | 0.00 | 0.00 | 0.00 | 61 | 1011.9 |
| 20260506222655 | 26 | 214 | 3.2 | 3.2 | 0.00 | 0.00 | 0.00 | 61 | 1011.9 |
| 20260506222150 | 26 | 251 | 4.8 | 8.0 | 0.00 | 0.00 | 0.00 | 61 | 1011.9 |
| 20260506221649 | 26 | 280 | 4.8 | 4.8 | 0.00 | 0.00 | 0.00 | 61 | 1012.0 |
| 20260506221147 | 26 | 262 | 6.4 | 9.7 | 0.00 | 0.00 | 0.00 | 61 | 1012.0 |
| 20260506220643 | 26 | 196 | 9.7 | 12.9 | 0.00 | 0.00 | 0.00 | 60 | 1012.0 |
| 20260506220138 | 26 | 228 | 4.8 | 4.8 | 0.00 | 0.00 | 0.00 | 61 | 1011.8 |
| 20260506215635 | 26 | 254 | 3.2 | 4.8 | 0.00 | 0.00 | 0.00 | 61 | 1012.0 |
| 20260506215131 | 26 | 213 | 6.4 | 9.7 | 0.00 | 0.00 | 0.00 | 61 | 1012.0 |
| 20260506214628 | 26 | 210 | 4.8 | 4.8 | 0.00 | 0.00 | 0.00 | 61 | 1011.9 |
| 20260506214126 | 26 | 238 | 3.2 | 3.2 | 0.00 | 0.00 | 0.00 | 61 | 1011.9 |
| 20260506213624 | 26 | 237 | 4.8 | 8.0 | 0.00 | 0.00 | 0.00 | 61 | 1011.8 |
| 20260506213120 | 26 | 269 | 8.0 | 11.3 | 0.00 | 0.00 | 0.00 | 60 | 1011.6 |
| 20260506212618 | 26 | 251 | 3.2 | 8.0 | 0.00 | 0.00 | 0.00 | 61 | 1011.6 |
| 20260506212112 | 26 | 198 | 8.0 | 12.9 | 0.00 | 0.00 | 0.00 | 60 | 1011.6 |
| 20260506211608 | 26 | 248 | 11.3 | 14.5 | 0.00 | 0.00 | 0.00 | 59 | 1011.7 |
| 20260506211106 | 26 | 190 | 6.4 | 9.7 | 0.00 | 0.00 | 0.00 | 60 | 1011.6 |
| 20260506210602 | 26 | 178 | 9.7 | 14.5 | 0.00 | 0.00 | 0.00 | 61 | 1012.0 |
| 20260506210059 | 25 | 254 | 6.4 | 9.7 | 0.00 | 0.00 | 0.00 | 61 | 1012.1 |
| 20260506205555 | 25 | 247 | 9.7 | 11.3 | 0.00 | 0.00 | 0.00 | 61 | 1012.0 |
| 20260506205050 | 25 | 233 | 4.8 | 4.8 | 0.00 | 0.00 | 0.00 | 61 | 1012.2 |
| 20260506204549 | 25 | 263 | 8.0 | 11.3 | 0.00 | 0.00 | 0.00 | 61 | 1012.4 |
| 20260506204045 | 25 | 194 | 4.8 | 8.0 | 0.00 | 0.00 | 0.00 | 61 | 1012.3 |
| 20260506203544 | 25 | 215 | 9.7 | 12.9 | 0.00 | 0.00 | 0.00 | 61 | 1012.6 |
| 20260506203040 | 25 | 183 | 8.0 | 9.7 | 0.00 | 0.00 | 0.00 | 61 | 1012.4 |
| 20260506202538 | 26 | 169 | 4.8 | 8.0 | 0.00 | 0.00 | 0.00 | 62 | 1012.5 |
| 20260506202034 | 26 | 301 | 8.0 | 9.7 | 0.00 | 0.00 | 0.00 | 62 | 1012.5 |
| 20260506201532 | 26 | 275 | 3.2 | 3.2 | 0.00 | 0.00 | 0.00 | 63 | 1013.1 |
| 20260506201028 | 25 | 280 | 4.8 | 8.0 | 0.00 | 0.00 | 0.00 | 63 | 1013.0 |
| 20260506200524 | 25 | 222 | 6.4 | 9.7 | 0.00 | 0.00 | 0.00 | 64 | 1013.2 |
| 20260506200021 | 25 | 255 | 9.7 | 17.7 | 0.00 | 0.00 | 0.00 | 64 | 1013.1 |
| 20260506195518 | 25 | 173 | 3.2 | 3.2 | 0.00 | 0.00 | 0.00 | 65 | 1013.5 |
| 20260506195014 | 25 | 255 | 1.6 | 3.2 | 0.00 | 0.00 | 0.00 | 65 | 1013.3 |
| 20260506194512 | 25 | 248 | 11.3 | 14.5 | 0.00 | 0.00 | 0.00 | 64 | 1013.2 |
| 20260506194008 | 25 | 232 | 3.2 | 4.8 | 0.00 | 0.00 | 0.00 | 65 | 1013.4 |
| 20260506193506 | 25 | 239 | 4.8 | 4.8 | 0.00 | 0.00 | 0.00 | 65 | 1013.6 |
| 20260506193002 | 26 | 197 | 1.6 | 1.6 | 0.00 | 0.00 | 0.00 | 65 | 1013.7 |
| 20260506192459 | 25 | 235 | 4.8 | 4.8 | 0.00 | 0.00 | 0.00 | 65 | 1013.7 |
| 20260506191955 | 25 | 184 | 4.8 | 8.0 | 0.00 | 0.00 | 0.00 | 65 | 1013.5 |
| 20260506191452 | 25 | 188 | 4.8 | 4.8 | 0.00 | 0.00 | 0.00 | 66 | 1013.6 |
| 20260506190948 | 25 | 267 | 3.2 | 4.8 | 0.00 | 0.00 | 0.00 | 66 | 1013.6 |
| 20260506190446 | 25 | 275 | 8.0 | 12.9 | 0.00 | 0.00 | 0.00 | 65 | 1013.8 |
| 20260506185942 | 25 | 230 | 3.2 | 3.2 | 0.00 | 0.00 | 0.00 | 65 | 1013.8 |
| 20260506185439 | 25 | 194 | 8.0 | 11.3 | 0.00 | 0.00 | 0.00 | 65 | 1013.8 |
| 20260506184936 | 25 | 215 | 4.8 | 4.8 | 0.00 | 0.00 | 0.00 | 65 | 1013.7 |
| 20260506184433 | 25 | 180 | 4.8 | 4.8 | 0.00 | 0.00 | 0.00 | 65 | 1013.6 |
| 20260506183931 | 25 | 211 | 6.4 | 8.0 | 0.00 | 0.00 | 0.00 | 64 | 1013.9 |